Shinkomaru No.8 — JK5142 — position and weather

sailwx.info

Track history (hours):
 
Tides and Currents Weather Stations Pressure Air Temp Water Temp Dewpoint Dewpoint Depression Visibility Wind Speed Wind Dir Waves Ship Positions

Shinkomaru No.8

Last reported at 2015-Mar-20 11:09 UTC. Time now 2015-Mar-31 02:10 UTC.
Position N 34°40' E 134°47'.
Warning: this ship's position is 10 days out of date.

Length 61 m; draft 4.3 m.

Type: Tanker. MMSI: 431400035.

Date/timePositionNaut miles runAvg speedWind from/ knotsBaromVisibWave heightAir tempDewpointWater temp
2015-Mar-20 11:09N 34°40' E 134°47'913.7
2015-Mar-20 10:29N 34°38' E 134°58'1010.8
2015-Mar-20 09:34N 34°29' E 135°05'1412.5
2015-Mar-20 08:27N 34°16' E 135°03'3 3.9
2015-Mar-20 07:33N 34°14' E 135°07'0 0.0
2015-Mar-20 06:32N 34°14' E 135°07'0 0.0
2015-Mar-20 05:31N 34°14' E 135°07'0 0.0
2015-Mar-20 04:33N 34°14' E 135°07'0 0.0
2015-Mar-20 03:32N 34°14' E 135°07'0 0.0
2015-Mar-20 02:34N 34°14' E 135°07'0 0.0
2015-Mar-20 01:33N 34°14' E 135°07'0 0.0
2015-Mar-20 00:32N 34°14' E 135°07'0 0.0
2015-Mar-19 23:32N 34°14' E 135°07'1 0.8
2015-Mar-19 22:33N 34°14' E 135°06'4 3.9
2015-Mar-19 21:33N 34°11' E 135°03'233 6.1
2015-Mar-18 07:33N 35°05' E 139°39'1212.0
2015-Mar-18 06:33N 35°15' E 139°46'1111.1
2015-Mar-18 05:33N 35°26' E 139°46'9 1.2
2015-Mar-17 22:31N 35°29' E 139°56'1 0.0
2015-Mar-16 19:17N 35°28' E 139°54'0 0.0
2015-Mar-16 17:20N 35°28' E 139°54'1 0.9
2015-Mar-16 16:33N 35°28' E 139°53'1111.3
2015-Mar-16 15:33N 35°20' E 139°44'1211.6
2015-Mar-16 14:33N 35°08' E 139°46'  
2015-Mar-14 08:33N 34°59' E 139°43'1312.7
2015-Mar-14 07:33N 35°11' E 139°46'1212.2
2015-Mar-14 06:33N 35°23' E 139°42'1212.2
2015-Mar-14 05:33N 35°30' E 139°55'2 0.2
2015-Mar-13 20:24N 35°28' E 139°55'0 0.0
2015-Mar-13 19:32N 35°28' E 139°55'1010.2
2015-Mar-13 18:33N 35°22' E 139°45'1110.9
2015-Mar-13 17:32N 35°11' E 139°47'1212.0
2015-Mar-13 16:31N 34°59' E 139°43'1 0.0
2015-Mar-12 13:32N 34°58' E 139°42'9 9.6
2015-Mar-12 12:33N 35°07' E 139°46'1010.1
2015-Mar-12 11:33N 35°17' E 139°45'4 4.3
2015-Mar-12 10:33N 35°22' E 139°44'0 0.0
2015-Mar-12 09:33N 35°22' E 139°44'0 0.0
2015-Mar-12 08:30N 35°22' E 139°44'0 0.0
2015-Mar-12 07:32N 35°22' E 139°44'0 0.0
2015-Mar-12 06:32N 35°22' E 139°44'0 0.0
2015-Mar-12 05:29N 35°22' E 139°44'0 0.0
2015-Mar-12 04:29N 35°22' E 139°44'0 0.0
2015-Mar-12 03:14N 35°22' E 139°44'0 0.0
2015-Mar-12 02:32N 35°22' E 139°44'0 0.0
2015-Mar-12 01:33N 35°22' E 139°44'0 0.0
2015-Mar-12 00:33N 35°22' E 139°44'0 0.0
2015-Mar-11 23:33N 35°22' E 139°44'0 0.0
2015-Mar-11 22:33N 35°22' E 139°44'0 0.0
2015-Mar-11 18:26N 35°22' E 139°44'0 0.0
2015-Mar-11 17:33N 35°22' E 139°44'0 0.0
2015-Mar-11 16:31N 35°22' E 139°44'0 0.0
2015-Mar-11 15:33N 35°22' E 139°44'0 0.0
2015-Mar-11 14:33N 35°22' E 139°44'0 0.0
2015-Mar-11 13:33N 35°22' E 139°44'0 0.0
2015-Mar-11 12:33N 35°22' E 139°44'0 0.0
2015-Mar-11 11:33N 35°22' E 139°44'0 0.0
2015-Mar-11 10:33N 35°22' E 139°44'0 0.0
2015-Mar-11 09:33N 35°22' E 139°44'0 0.0
2015-Mar-11 08:33N 35°22' E 139°44'0 0.0
2015-Mar-11 07:33N 35°22' E 139°44'0 0.0
2015-Mar-11 06:32N 35°22' E 139°44'0 0.0
2015-Mar-11 05:32N 35°22' E 139°44'0 0.0
2015-Mar-11 04:32N 35°22' E 139°44'0 0.0
2015-Mar-11 03:33N 35°22' E 139°44'0 0.0
2015-Mar-11 02:33N 35°22' E 139°44'0 0.0
2015-Mar-11 01:33N 35°22' E 139°44'0 0.0
2015-Mar-11 00:33N 35°22' E 139°44'0 0.0
2015-Mar-10 23:33N 35°22' E 139°44'0 0.0
2015-Mar-10 22:33N 35°22' E 139°44'0 0.0
2015-Mar-10 21:33N 35°22' E 139°44'0 0.0
2015-Mar-10 20:33N 35°22' E 139°44'0 0.0
2015-Mar-10 19:33N 35°22' E 139°44'0 0.0
2015-Mar-10 18:33N 35°22' E 139°44'0 0.0
2015-Mar-10 17:24N 35°22' E 139°44'0 0.1
2015-Mar-10 16:30N 35°22' E 139°44'0 0.0
2015-Mar-10 15:33N 35°22' E 139°44'0 0.0
2015-Mar-10 14:30N 35°22' E 139°44'0 0.0
2015-Mar-10 13:30N 35°22' E 139°44'0 0.0
2015-Mar-10 12:33N 35°22' E 139°44'0 0.0
2015-Mar-10 11:30N 35°22' E 139°44'  
Track history (hours):
 
Tides and Currents Weather Stations Pressure Air Temp Water Temp Dewpoint Dewpoint Depression Visibility Wind Speed Wind Dir Waves Ship Positions

Shinkomaru No.8

Last reported at 2015-Mar-20 11:09 UTC. Time now 2015-Mar-31 02:10 UTC.
Position N 34°40' E 134°47'.
Warning: this ship's position is 10 days out of date.

Length 61 m; draft 4.3 m.

Type: Tanker. MMSI: 431400035.

Date/timePositionNaut miles runAvg speedWind from/ knotsBaromVisibWave heightAir tempDewpointWater temp
2015-Mar-20 11:09N 34°40' E 134°47'913.7
2015-Mar-20 10:29N 34°38' E 134°58'1010.8
2015-Mar-20 09:34N 34°29' E 135°05'1412.5
2015-Mar-20 08:27N 34°16' E 135°03'3 3.9
2015-Mar-20 07:33N 34°14' E 135°07'0 0.0
2015-Mar-20 06:32N 34°14' E 135°07'0 0.0
2015-Mar-20 05:31N 34°14' E 135°07'0 0.0
2015-Mar-20 04:33N 34°14' E 135°07'0 0.0
2015-Mar-20 03:32N 34°14' E 135°07'0 0.0
2015-Mar-20 02:34N 34°14' E 135°07'0 0.0
2015-Mar-20 01:33N 34°14' E 135°07'0 0.0
2015-Mar-20 00:32N 34°14' E 135°07'0 0.0
2015-Mar-19 23:32N 34°14' E 135°07'1 0.8
2015-Mar-19 22:33N 34°14' E 135°06'4 3.9
2015-Mar-19 21:33N 34°11' E 135°03'233 6.1
2015-Mar-18 07:33N 35°05' E 139°39'1212.0
2015-Mar-18 06:33N 35°15' E 139°46'1111.1
2015-Mar-18 05:33N 35°26' E 139°46'9 1.2
2015-Mar-17 22:31N 35°29' E 139°56'1 0.0
2015-Mar-16 19:17N 35°28' E 139°54'0 0.0
2015-Mar-16 17:20N 35°28' E 139°54'1 0.9
2015-Mar-16 16:33N 35°28' E 139°53'1111.3
2015-Mar-16 15:33N 35°20' E 139°44'1211.6
2015-Mar-16 14:33N 35°08' E 139°46'  
2015-Mar-14 08:33N 34°59' E 139°43'1312.7
2015-Mar-14 07:33N 35°11' E 139°46'1212.2
2015-Mar-14 06:33N 35°23' E 139°42'1212.2
2015-Mar-14 05:33N 35°30' E 139°55'2 0.2
2015-Mar-13 20:24N 35°28' E 139°55'0 0.0
2015-Mar-13 19:32N 35°28' E 139°55'1010.2
2015-Mar-13 18:33N 35°22' E 139°45'1110.9
2015-Mar-13 17:32N 35°11' E 139°47'1212.0
2015-Mar-13 16:31N 34°59' E 139°43'1 0.0
2015-Mar-12 13:32N 34°58' E 139°42'9 9.6
2015-Mar-12 12:33N 35°07' E 139°46'1010.1
2015-Mar-12 11:33N 35°17' E 139°45'4 4.3
2015-Mar-12 10:33N 35°22' E 139°44'0 0.0
2015-Mar-12 09:33N 35°22' E 139°44'0 0.0
2015-Mar-12 08:30N 35°22' E 139°44'0 0.0
2015-Mar-12 07:32N 35°22' E 139°44'0 0.0
2015-Mar-12 06:32N 35°22' E 139°44'0 0.0
2015-Mar-12 05:29N 35°22' E 139°44'0 0.0
2015-Mar-12 04:29N 35°22' E 139°44'0 0.0
2015-Mar-12 03:14N 35°22' E 139°44'0 0.0
2015-Mar-12 02:32N 35°22' E 139°44'0 0.0
2015-Mar-12 01:33N 35°22' E 139°44'0 0.0
2015-Mar-12 00:33N 35°22' E 139°44'0 0.0
2015-Mar-11 23:33N 35°22' E 139°44'0 0.0
2015-Mar-11 22:33N 35°22' E 139°44'0 0.0
2015-Mar-11 18:26N 35°22' E 139°44'0 0.0
2015-Mar-11 17:33N 35°22' E 139°44'0 0.0
2015-Mar-11 16:31N 35°22' E 139°44'0 0.0
2015-Mar-11 15:33N 35°22' E 139°44'0 0.0
2015-Mar-11 14:33N 35°22' E 139°44'0 0.0
2015-Mar-11 13:33N 35°22' E 139°44'0 0.0
2015-Mar-11 12:33N 35°22' E 139°44'0 0.0
2015-Mar-11 11:33N 35°22' E 139°44'0 0.0
2015-Mar-11 10:33N 35°22' E 139°44'0 0.0
2015-Mar-11 09:33N 35°22' E 139°44'0 0.0
2015-Mar-11 08:33N 35°22' E 139°44'0 0.0
2015-Mar-11 07:33N 35°22' E 139°44'0 0.0
2015-Mar-11 06:32N 35°22' E 139°44'0 0.0
2015-Mar-11 05:32N 35°22' E 139°44'0 0.0
2015-Mar-11 04:32N 35°22' E 139°44'0 0.0
2015-Mar-11 03:33N 35°22' E 139°44'0 0.0
2015-Mar-11 02:33N 35°22' E 139°44'0 0.0
2015-Mar-11 01:33N 35°22' E 139°44'0 0.0
2015-Mar-11 00:33N 35°22' E 139°44'0 0.0
2015-Mar-10 23:33N 35°22' E 139°44'0 0.0
2015-Mar-10 22:33N 35°22' E 139°44'0 0.0
2015-Mar-10 21:33N 35°22' E 139°44'0 0.0
2015-Mar-10 20:33N 35°22' E 139°44'0 0.0
2015-Mar-10 19:33N 35°22' E 139°44'0 0.0
2015-Mar-10 18:33N 35°22' E 139°44'0 0.0
2015-Mar-10 17:24N 35°22' E 139°44'0 0.1
2015-Mar-10 16:30N 35°22' E 139°44'0 0.0
2015-Mar-10 15:33N 35°22' E 139°44'0 0.0
2015-Mar-10 14:30N 35°22' E 139°44'0 0.0
2015-Mar-10 13:30N 35°22' E 139°44'0 0.0
2015-Mar-10 12:33N 35°22' E 139°44'0 0.0
2015-Mar-10 11:30N 35°22' E 139°44'  

Dump ship's entire track history